createdAt,value
2022-08-05T00:02:59.503Z,17.4
2022-08-05T00:08:01.779Z,17.4
2022-08-05T00:13:00.081Z,17.3
2022-08-05T00:18:02.710Z,17.3
2022-08-05T00:23:13.336Z,17.2
2022-08-05T00:28:00.454Z,17.2
2022-08-05T00:32:59.539Z,16.9
2022-08-05T00:38:03.036Z,16.9
2022-08-05T00:43:00.182Z,16.8
2022-08-05T00:48:06.415Z,16.8
2022-08-05T00:53:00.211Z,16.7
2022-08-05T00:58:00.272Z,16.7
2022-08-05T01:03:00.176Z,16.7
2022-08-05T01:08:44.206Z,16.7
2022-08-05T01:13:19.373Z,16.6
2022-08-05T01:17:59.671Z,16.6
2022-08-05T01:23:22.686Z,16.7
2022-08-05T01:28:00.612Z,16.7
2022-08-05T01:33:00.073Z,16.8
2022-08-05T01:38:00.276Z,16.8
2022-08-05T01:43:00.379Z,16.8
2022-08-05T01:47:59.569Z,16.8
2022-08-05T01:52:59.672Z,16.8
2022-08-05T01:58:15.740Z,16.8
2022-08-05T02:03:03.907Z,16.8
2022-08-05T02:08:02.141Z,16.8
2022-08-05T02:13:01.473Z,16.7
2022-08-05T02:18:34.790Z,16.7
2022-08-05T02:22:59.919Z,16.7
2022-08-05T02:28:00.801Z,16.7
2022-08-05T02:33:00.698Z,16.7
2022-08-05T02:38:02.713Z,16.7
2022-08-05T02:42:59.990Z,16.7
2022-08-05T02:48:13.046Z,16.7
2022-08-05T02:53:00.689Z,16.8
2022-08-05T02:58:20.088Z,16.8
2022-08-05T03:03:00.862Z,16.4
2022-08-05T03:08:09.478Z,16.4
2022-08-05T03:18:00.254Z,16.2
2022-08-05T03:23:01.214Z,16.1
2022-08-05T03:28:00.833Z,16.1
2022-08-05T03:33:01.027Z,16.1
2022-08-05T03:38:00.025Z,16.1
2022-08-05T03:44:10.998Z,15.9
2022-08-05T03:48:00.164Z,15.9
2022-08-05T03:56:17.071Z,15.7
2022-08-05T03:58:00.031Z,15.7
2022-08-05T04:03:00.517Z,15.6
2022-08-05T04:08:00.270Z,15.6
2022-08-05T04:12:59.812Z,15.6
2022-08-05T04:18:00.865Z,15.6
2022-08-05T04:23:01.234Z,15.7
2022-08-05T04:28:12.912Z,15.7
2022-08-05T04:33:01.620Z,15.7
2022-08-05T04:38:07.035Z,15.7
2022-08-05T04:43:00.425Z,15.7
2022-08-05T04:48:01.182Z,15.7
2022-08-05T04:53:01.083Z,15.7
2022-08-05T04:58:00.265Z,15.7
2022-08-05T05:03:04.573Z,15.8
2022-08-05T05:08:02.597Z,15.8
2022-08-05T05:13:03.974Z,15.8
2022-08-05T05:18:00.143Z,15.8
2022-08-05T05:23:19.774Z,16
2022-08-05T05:28:00.296Z,16
2022-08-05T05:33:03.477Z,16.2
2022-08-05T05:38:02.534Z,16.2
2022-08-05T05:43:02.310Z,16.4
2022-08-05T05:48:08.880Z,16.4
2022-08-05T05:53:00.293Z,16.3
2022-08-05T05:58:04.532Z,16.3
2022-08-05T06:03:01.165Z,16.3
2022-08-05T06:08:03.887Z,16.3
2022-08-05T06:13:00.240Z,16.2
2022-08-05T06:18:00.493Z,16.2
2022-08-05T06:23:04.246Z,16.5
2022-08-05T06:28:21.198Z,16.5
2022-08-05T06:33:00.074Z,17
2022-08-05T06:38:12.017Z,17
2022-08-05T06:43:00.504Z,17
2022-08-05T06:48:59.260Z,17
2022-08-05T06:53:11.930Z,17
2022-08-05T06:58:35.504Z,17
2022-08-05T07:03:00.899Z,17.3
2022-08-05T07:08:02.549Z,17.3
2022-08-05T07:13:00.624Z,17.8
2022-08-05T07:18:11.583Z,17.8
2022-08-05T07:22:59.985Z,17.7
2022-08-05T07:28:11.676Z,17.7
2022-08-05T07:33:00.402Z,17.5
2022-08-05T07:38:00.949Z,17.5
2022-08-05T07:43:14.445Z,17.4
2022-08-05T07:47:59.975Z,17.4
2022-08-05T07:53:00.251Z,17.3
2022-08-05T07:58:04.137Z,17.3
2022-08-05T08:03:16.095Z,17.3
2022-08-05T08:08:00.901Z,17.3
2022-08-05T08:13:01.809Z,17.2
2022-08-05T08:18:04.265Z,17.2
2022-08-05T08:23:03.450Z,16.9
2022-08-05T08:27:59.936Z,16.9
2022-08-05T08:33:08.288Z,16.9
2022-08-05T08:38:01.161Z,16.9
2022-08-05T08:45:26.970Z,16.9
2022-08-05T08:48:43.707Z,16.9
2022-08-05T08:53:01.222Z,17
2022-08-05T08:58:00.557Z,17
2022-08-05T09:03:00.337Z,16.9
2022-08-05T09:08:00.591Z,16.9
2022-08-05T09:13:05.480Z,16.9
2022-08-05T09:18:00.485Z,16.9
2022-08-05T09:23:07.755Z,17.1
2022-08-05T09:28:06.605Z,17.1
2022-08-05T09:32:59.857Z,17.1
2022-08-05T09:38:27.571Z,17.1
2022-08-05T09:43:01.086Z,17.1
2022-08-05T09:48:01.050Z,17.1
2022-08-05T09:53:01.231Z,17.3
2022-08-05T09:58:01.098Z,17.3
2022-08-05T10:03:00.112Z,17.3
2022-08-05T10:08:38.348Z,17.3
2022-08-05T10:13:00.641Z,17
2022-08-05T10:18:01.699Z,17
2022-08-05T10:23:00.828Z,16.9
2022-08-05T10:28:19.621Z,16.9
2022-08-05T10:33:03.156Z,16.8
2022-08-05T10:38:02.021Z,16.8
2022-08-05T10:43:00.329Z,16.8
2022-08-05T10:48:39.543Z,16.8
2022-08-05T10:53:00.491Z,16.7
2022-08-05T10:58:01.206Z,16.7
2022-08-05T11:03:27.148Z,16.5
2022-08-05T11:08:27.505Z,16.5
2022-08-05T11:13:01.492Z,16.4
2022-08-05T11:18:12.056Z,16.4
2022-08-05T11:23:10.605Z,16.4
2022-08-05T11:28:01.069Z,16.4
2022-08-05T11:33:04.773Z,16.5
2022-08-05T11:38:37.231Z,16.5
2022-08-05T11:43:03.035Z,16.4
2022-08-05T11:48:00.787Z,16.4
2022-08-05T11:53:01.321Z,16.2
2022-08-05T11:58:12.167Z,16.2
2022-08-05T12:03:00.589Z,16.3
2022-08-05T12:08:11.726Z,16.3
2022-08-05T12:13:00.631Z,16.4
2022-08-05T12:18:10.019Z,16.4
2022-08-05T12:23:00.562Z,16.6
2022-08-05T12:28:02.588Z,16.6
2022-08-05T12:33:36.012Z,16.4
2022-08-05T12:38:03.112Z,16.4
2022-08-05T12:43:00.893Z,16.7
2022-08-05T12:48:33.104Z,16.7
2022-08-05T12:53:00.535Z,16.8
2022-08-05T12:59:00.962Z,16.8
2022-08-05T13:03:00.908Z,17.7
2022-08-05T13:08:01.775Z,17.7
2022-08-05T13:13:02.843Z,17.9
2022-08-05T13:18:01.092Z,17.9
2022-08-05T13:23:00.494Z,18.3
2022-08-05T13:28:00.798Z,18.3
2022-08-05T13:33:02.342Z,18.4
2022-08-05T13:38:06.078Z,18.4
2022-08-05T13:43:00.506Z,18.7
2022-08-05T13:49:00.320Z,18.7
2022-08-05T13:53:00.783Z,18.6
2022-08-05T13:58:00.284Z,18.6
2022-08-05T14:03:01.597Z,18.7
2022-08-05T14:08:27.707Z,18.7
2022-08-05T14:13:02.320Z,18.8
2022-08-05T14:18:01.032Z,18.8
2022-08-05T14:23:02.680Z,18.9
2022-08-05T14:28:00.965Z,18.9
2022-08-05T14:33:00.334Z,18.8
2022-08-05T14:38:01.305Z,18.8
2022-08-05T14:43:00.718Z,18.8
2022-08-05T14:48:08.995Z,18.8
2022-08-05T14:53:01.852Z,18.9
2022-08-05T14:58:00.491Z,18.9
2022-08-05T15:02:59.948Z,19.6
2022-08-05T15:08:18.060Z,19.6
2022-08-05T15:13:05.020Z,19.8
2022-08-05T15:18:06.042Z,19.8
2022-08-05T15:23:02.170Z,19.7
2022-08-05T15:28:00.030Z,19.7
2022-08-05T15:33:01.398Z,18.9
2022-08-05T15:38:42.066Z,18.9
2022-08-05T15:43:20.195Z,17.5
2022-08-05T15:48:01.252Z,17.5
2022-08-05T15:53:06.432Z,17.6
2022-08-05T15:58:02.607Z,17.6
2022-08-05T16:03:00.747Z,18
2022-08-05T16:08:00.378Z,18
2022-08-05T16:13:00.591Z,17.8
2022-08-05T16:18:04.506Z,17.8
2022-08-05T16:23:01.205Z,18
2022-08-05T16:28:09.472Z,18
2022-08-05T16:33:00.609Z,18
2022-08-05T16:38:28.236Z,18
2022-08-05T16:43:03.342Z,17.8
2022-08-05T16:48:03.274Z,17.8
2022-08-05T16:53:22.451Z,17.8
2022-08-05T16:58:03.593Z,17.8
2022-08-05T17:03:00.905Z,17.7
2022-08-05T17:08:00.302Z,17.7
2022-08-05T17:13:00.627Z,17.4
2022-08-05T17:18:00.768Z,17.4
2022-08-05T17:23:00.391Z,17.2
2022-08-05T17:28:00.642Z,17.2
2022-08-05T17:33:00.806Z,17.1
2022-08-05T17:38:05.230Z,17.1
2022-08-05T17:43:00.427Z,16.8
2022-08-05T17:48:00.635Z,16.8
2022-08-05T17:53:01.013Z,16.7
2022-08-05T17:58:00.991Z,16.7
2022-08-05T18:03:00.424Z,16.5
2022-08-05T18:08:00.709Z,16.5
2022-08-05T18:13:12.363Z,16.2
2022-08-05T18:18:11.532Z,16.2
2022-08-05T18:23:12.512Z,16
2022-08-05T18:28:05.499Z,16
2022-08-05T18:33:01.610Z,15.8
2022-08-05T18:38:00.707Z,15.8
2022-08-05T18:43:00.733Z,15.6
2022-08-05T18:48:02.206Z,15.6
2022-08-05T18:53:00.563Z,15.4
2022-08-05T18:58:03.659Z,15.4
2022-08-05T19:03:04.900Z,15.2
2022-08-05T19:08:01.055Z,15.2
2022-08-05T19:13:02.697Z,15
2022-08-05T19:18:22.293Z,15
2022-08-05T19:23:01.079Z,14.7
2022-08-05T19:28:00.806Z,14.7
2022-08-05T19:33:06.329Z,14.5
2022-08-05T19:38:09.386Z,14.5
2022-08-05T19:43:07.433Z,14.6
2022-08-05T19:48:00.614Z,14.6
2022-08-05T19:53:10.998Z,14.7
2022-08-05T19:58:30.081Z,14.7
2022-08-05T20:03:09.085Z,14.4
2022-08-05T20:08:01.103Z,14.4
2022-08-05T20:13:00.436Z,14
2022-08-05T20:18:00.924Z,14
2022-08-05T20:23:01.396Z,13.7
2022-08-05T20:28:01.570Z,13.7
2022-08-05T20:33:00.511Z,13.4
2022-08-05T20:38:08.516Z,13.4
2022-08-05T20:43:00.726Z,13.3
2022-08-05T20:48:00.284Z,13.3
2022-08-05T20:53:02.213Z,13.2
2022-08-05T20:58:01.089Z,13.2
2022-08-05T21:03:01.752Z,13.2
2022-08-05T21:08:00.860Z,13.2
2022-08-05T21:13:26.178Z,13.3
2022-08-05T21:18:00.517Z,13.3
2022-08-05T21:23:00.699Z,13.2
2022-08-05T21:28:00.423Z,13.2
2022-08-05T21:33:02.080Z,13.1
2022-08-05T21:38:00.521Z,13.1
2022-08-05T21:43:05.843Z,12.9
2022-08-05T21:48:00.868Z,12.9
2022-08-05T21:53:17.896Z,13
2022-08-05T21:58:03.695Z,13
2022-08-05T22:03:00.357Z,13
2022-08-05T22:08:02.732Z,13
2022-08-05T22:14:35.743Z,13.1
2022-08-05T22:18:00.719Z,13.1
2022-08-05T22:23:00.904Z,12.9
2022-08-05T22:28:12.048Z,12.9
2022-08-05T22:33:00.403Z,12.8
2022-08-05T22:38:00.716Z,12.8
2022-08-05T22:43:00.262Z,12.8
2022-08-05T22:48:01.063Z,12.8
2022-08-05T22:53:01.155Z,12.6
2022-08-05T22:58:02.183Z,12.6
2022-08-05T23:03:04.571Z,12.3
2022-08-05T23:08:00.578Z,12.3
2022-08-05T23:13:02.395Z,12.2
2022-08-05T23:18:05.854Z,12.2
2022-08-05T23:23:08.319Z,12.1
2022-08-05T23:28:01.210Z,12.1
2022-08-05T23:33:00.492Z,12
2022-08-05T23:38:00.898Z,12
2022-08-05T23:43:25.173Z,11.8
2022-08-05T23:48:04.664Z,11.8
2022-08-05T23:53:03.418Z,11.8
2022-08-05T23:58:02.227Z,11.8
